sensor_id;sensor_type;location;lat;lon;timestamp;P1;durP1;ratioP1;P2;durP2;ratioP2
71202;SDS011;58929;47.490;19.090;2022-09-28T00:01:13;1.77;;;0.65;;
71202;SDS011;58929;47.490;19.090;2022-09-28T00:03:42;0.93;;;0.50;;
71202;SDS011;58929;47.490;19.090;2022-09-28T00:06:11;0.50;;;0.50;;
71202;SDS011;58929;47.490;19.090;2022-09-28T00:08:39;1.42;;;0.45;;
71202;SDS011;58929;47.490;19.090;2022-09-28T00:11:09;0.90;;;0.60;;
71202;SDS011;58929;47.490;19.090;2022-09-28T00:13:39;1.00;;;0.60;;
71202;SDS011;58929;47.490;19.090;2022-09-28T00:16:12;0.73;;;0.50;;
71202;SDS011;58929;47.490;19.090;2022-09-28T00:18:41;2.72;;;0.60;;
71202;SDS011;58929;47.490;19.090;2022-09-28T00:21:09;0.50;;;0.50;;
71202;SDS011;58929;47.490;19.090;2022-09-28T00:23:38;0.70;;;0.40;;
71202;SDS011;58929;47.490;19.090;2022-09-28T00:26:27;1.67;;;0.70;;
71202;SDS011;58929;47.490;19.090;2022-09-28T00:28:56;3.03;;;0.50;;
71202;SDS011;58929;47.490;19.090;2022-09-28T00:31:24;1.48;;;0.57;;
71202;SDS011;58929;47.490;19.090;2022-09-28T00:33:55;2.60;;;0.60;;
71202;SDS011;58929;47.490;19.090;2022-09-28T00:36:23;1.83;;;0.60;;
71202;SDS011;58929;47.490;19.090;2022-09-28T00:38:52;1.35;;;0.60;;
71202;SDS011;58929;47.490;19.090;2022-09-28T00:41:21;2.05;;;0.57;;
71202;SDS011;58929;47.490;19.090;2022-09-28T00:43:50;2.80;;;0.70;;
71202;SDS011;58929;47.490;19.090;2022-09-28T00:46:19;0.50;;;0.40;;
71202;SDS011;58929;47.490;19.090;2022-09-28T00:48:49;1.15;;;0.68;;
71202;SDS011;58929;47.490;19.090;2022-09-28T00:51:19;2.25;;;0.90;;
71202;SDS011;58929;47.490;19.090;2022-09-28T00:53:48;0.70;;;0.50;;
71202;SDS011;58929;47.490;19.090;2022-09-28T00:56:17;0.57;;;0.50;;
71202;SDS011;58929;47.490;19.090;2022-09-28T00:58:49;1.08;;;0.40;;
71202;SDS011;58929;47.490;19.090;2022-09-28T01:01:19;0.70;;;0.50;;
71202;SDS011;58929;47.490;19.090;2022-09-28T01:03:48;0.82;;;0.40;;
71202;SDS011;58929;47.490;19.090;2022-09-28T01:06:17;1.05;;;0.57;;
71202;SDS011;58929;47.490;19.090;2022-09-28T01:08:47;3.45;;;0.60;;
71202;SDS011;58929;47.490;19.090;2022-09-28T01:11:16;1.25;;;0.60;;
71202;SDS011;58929;47.490;19.090;2022-09-28T01:13:47;0.82;;;0.50;;
71202;SDS011;58929;47.490;19.090;2022-09-28T01:16:18;1.17;;;0.57;;
71202;SDS011;58929;47.490;19.090;2022-09-28T01:18:55;2.97;;;0.40;;
71202;SDS011;58929;47.490;19.090;2022-09-28T01:21:27;0.95;;;0.55;;
71202;SDS011;58929;47.490;19.090;2022-09-28T01:26:41;1.77;;;0.57;;
71202;SDS011;58929;47.490;19.090;2022-09-28T01:29:14;2.63;;;0.40;;
71202;SDS011;58929;47.490;19.090;2022-09-28T01:31:44;1.00;;;0.68;;
71202;SDS011;58929;47.490;19.090;2022-09-28T01:34:13;1.35;;;0.47;;
71202;SDS011;58929;47.490;19.090;2022-09-28T01:36:44;3.30;;;0.70;;
71202;SDS011;58929;47.490;19.090;2022-09-28T01:39:16;3.03;;;0.55;;
71202;SDS011;58929;47.490;19.090;2022-09-28T01:41:48;0.73;;;0.50;;
71202;SDS011;58929;47.490;19.090;2022-09-28T01:44:18;1.30;;;0.50;;
71202;SDS011;58929;47.490;19.090;2022-09-28T01:46:48;1.70;;;0.40;;
71202;SDS011;58929;47.490;19.090;2022-09-28T01:49:17;1.55;;;0.52;;
71202;SDS011;58929;47.490;19.090;2022-09-28T01:51:47;2.05;;;0.80;;
71202;SDS011;58929;47.490;19.090;2022-09-28T01:54:18;1.48;;;0.45;;
71202;SDS011;58929;47.490;19.090;2022-09-28T01:56:51;1.90;;;0.70;;
71202;SDS011;58929;47.490;19.090;2022-09-28T01:59:21;1.48;;;0.55;;
71202;SDS011;58929;47.490;19.090;2022-09-28T02:01:52;0.63;;;0.60;;
71202;SDS011;58929;47.490;19.090;2022-09-28T02:04:23;1.73;;;0.80;;
71202;SDS011;58929;47.490;19.090;2022-09-28T02:06:53;1.52;;;0.85;;
71202;SDS011;58929;47.490;19.090;2022-09-28T02:09:23;1.75;;;0.65;;
71202;SDS011;58929;47.490;19.090;2022-09-28T02:12:00;6.05;;;0.57;;
71202;SDS011;58929;47.490;19.090;2022-09-28T02:14:30;1.52;;;0.32;;
71202;SDS011;58929;47.490;19.090;2022-09-28T02:17:00;0.85;;;0.60;;
71202;SDS011;58929;47.490;19.090;2022-09-28T02:19:30;3.92;;;0.47;;
71202;SDS011;58929;47.490;19.090;2022-09-28T02:22:00;0.77;;;0.50;;
71202;SDS011;58929;47.490;19.090;2022-09-28T02:24:34;2.90;;;0.70;;
71202;SDS011;58929;47.490;19.090;2022-09-28T02:27:11;4.13;;;0.82;;
71202;SDS011;58929;47.490;19.090;2022-09-28T02:29:40;0.70;;;0.50;;
71202;SDS011;58929;47.490;19.090;2022-09-28T02:32:09;1.10;;;0.50;;
71202;SDS011;58929;47.490;19.090;2022-09-28T02:34:37;1.23;;;0.70;;
71202;SDS011;58929;47.490;19.090;2022-09-28T02:37:05;0.98;;;0.50;;
71202;SDS011;58929;47.490;19.090;2022-09-28T02:39:33;1.73;;;0.50;;
71202;SDS011;58929;47.490;19.090;2022-09-28T02:42:04;0.70;;;0.45;;
71202;SDS011;58929;47.490;19.090;2022-09-28T02:47:24;2.05;;;0.73;;
71202;SDS011;58929;47.490;19.090;2022-09-28T02:49:55;1.50;;;1.40;;
71202;SDS011;58929;47.490;19.090;2022-09-28T02:52:32;1.25;;;0.80;;
71202;SDS011;58929;47.490;19.090;2022-09-28T02:55:23;1.40;;;1.00;;
71202;SDS011;58929;47.490;19.090;2022-09-28T02:58:07;2.05;;;0.90;;
71202;SDS011;58929;47.490;19.090;2022-09-28T03:00:40;1.65;;;0.60;;
71202;SDS011;58929;47.490;19.090;2022-09-28T03:03:13;1.15;;;0.82;;
71202;SDS011;58929;47.490;19.090;2022-09-28T03:05:46;1.90;;;0.50;;
71202;SDS011;58929;47.490;19.090;2022-09-28T03:08:19;3.25;;;0.60;;
71202;SDS011;58929;47.490;19.090;2022-09-28T03:10:49;0.38;;;0.38;;
71202;SDS011;58929;47.490;19.090;2022-09-28T03:13:21;0.88;;;0.60;;
71202;SDS011;58929;47.490;19.090;2022-09-28T03:15:49;2.40;;;0.88;;
71202;SDS011;58929;47.490;19.090;2022-09-28T03:18:20;1.73;;;1.00;;
71202;SDS011;58929;47.490;19.090;2022-09-28T03:20:48;1.35;;;0.88;;
71202;SDS011;58929;47.490;19.090;2022-09-28T03:23:16;1.67;;;1.13;;
71202;SDS011;58929;47.490;19.090;2022-09-28T03:25:50;2.63;;;0.70;;
71202;SDS011;58929;47.490;19.090;2022-09-28T03:28:18;1.90;;;0.80;;
71202;SDS011;58929;47.490;19.090;2022-09-28T03:30:47;1.85;;;1.00;;
71202;SDS011;58929;47.490;19.090;2022-09-28T03:33:16;2.22;;;1.00;;
71202;SDS011;58929;47.490;19.090;2022-09-28T03:35:46;0.70;;;0.68;;
71202;SDS011;58929;47.490;19.090;2022-09-28T03:38:15;4.25;;;0.80;;
71202;SDS011;58929;47.490;19.090;2022-09-28T03:40:50;0.93;;;0.82;;
71202;SDS011;58929;47.490;19.090;2022-09-28T03:43:19;2.45;;;0.60;;
71202;SDS011;58929;47.490;19.090;2022-09-28T03:45:50;4.60;;;0.90;;
71202;SDS011;58929;47.490;19.090;2022-09-28T03:48:20;1.90;;;0.93;;
71202;SDS011;58929;47.490;19.090;2022-09-28T03:50:55;2.17;;;0.82;;
71202;SDS011;58929;47.490;19.090;2022-09-28T03:53:24;1.60;;;0.90;;
71202;SDS011;58929;47.490;19.090;2022-09-28T03:55:52;3.95;;;0.75;;
71202;SDS011;58929;47.490;19.090;2022-09-28T03:58:21;1.95;;;0.82;;
71202;SDS011;58929;47.490;19.090;2022-09-28T04:00:49;1.80;;;0.75;;
71202;SDS011;58929;47.490;19.090;2022-09-28T04:03:18;3.17;;;0.90;;
71202;SDS011;58929;47.490;19.090;2022-09-28T04:05:49;1.13;;;0.80;;
71202;SDS011;58929;47.490;19.090;2022-09-28T04:08:19;4.68;;;0.98;;
71202;SDS011;58929;47.490;19.090;2022-09-28T04:10:47;3.28;;;0.90;;
71202;SDS011;58929;47.490;19.090;2022-09-28T04:13:15;5.55;;;1.00;;
71202;SDS011;58929;47.490;19.090;2022-09-28T04:15:50;5.10;;;1.20;;
71202;SDS011;58929;47.490;19.090;2022-09-28T04:18:19;2.03;;;1.00;;
71202;SDS011;58929;47.490;19.090;2022-09-28T04:21:19;4.45;;;1.17;;
71202;SDS011;58929;47.490;19.090;2022-09-28T04:23:54;2.72;;;1.10;;
71202;SDS011;58929;47.490;19.090;2022-09-28T04:26:24;3.50;;;1.13;;
71202;SDS011;58929;47.490;19.090;2022-09-28T04:28:52;1.83;;;1.20;;
71202;SDS011;58929;47.490;19.090;2022-09-28T04:31:41;8.15;;;4.30;;
71202;SDS011;58929;47.490;19.090;2022-09-28T04:34:10;7.93;;;2.05;;
71202;SDS011;58929;47.490;19.090;2022-09-28T04:36:38;5.28;;;1.98;;
71202;SDS011;58929;47.490;19.090;2022-09-28T04:39:08;4.82;;;1.80;;
71202;SDS011;58929;47.490;19.090;2022-09-28T04:41:36;3.75;;;1.60;;
71202;SDS011;58929;47.490;19.090;2022-09-28T04:44:04;2.33;;;1.25;;
71202;SDS011;58929;47.490;19.090;2022-09-28T04:46:34;5.10;;;1.20;;
71202;SDS011;58929;47.490;19.090;2022-09-28T04:49:20;5.32;;;1.33;;
71202;SDS011;58929;47.490;19.090;2022-09-28T04:51:55;6.18;;;1.38;;
71202;SDS011;58929;47.490;19.090;2022-09-28T04:54:25;3.40;;;1.30;;
71202;SDS011;58929;47.490;19.090;2022-09-28T04:56:54;4.88;;;1.90;;
71202;SDS011;58929;47.490;19.090;2022-09-28T04:59:24;4.47;;;2.60;;
71202;SDS011;58929;47.490;19.090;2022-09-28T05:02:01;4.68;;;1.30;;
71202;SDS011;58929;47.490;19.090;2022-09-28T05:05:03;3.65;;;1.33;;
71202;SDS011;58929;47.490;19.090;2022-09-28T05:07:56;2.10;;;0.82;;
71202;SDS011;58929;47.490;19.090;2022-09-28T05:10:25;6.05;;;2.38;;
71202;SDS011;58929;47.490;19.090;2022-09-28T05:12:53;7.57;;;2.50;;
71202;SDS011;58929;47.490;19.090;2022-09-28T05:15:21;4.38;;;1.05;;
71202;SDS011;58929;47.490;19.090;2022-09-28T05:17:51;3.00;;;1.45;;
71202;SDS011;58929;47.490;19.090;2022-09-28T05:20:27;15.32;;;1.45;;
71202;SDS011;58929;47.490;19.090;2022-09-28T05:22:55;3.42;;;1.00;;
71202;SDS011;58929;47.490;19.090;2022-09-28T05:25:22;3.60;;;1.75;;
71202;SDS011;58929;47.490;19.090;2022-09-28T05:28:01;4.63;;;0.80;;
71202;SDS011;58929;47.490;19.090;2022-09-28T05:30:39;2.78;;;1.20;;
71202;SDS011;58929;47.490;19.090;2022-09-28T05:33:25;4.75;;;1.48;;
71202;SDS011;58929;47.490;19.090;2022-09-28T05:36:08;8.90;;;5.57;;
71202;SDS011;58929;47.490;19.090;2022-09-28T05:38:36;3.40;;;1.15;;
71202;SDS011;58929;47.490;19.090;2022-09-28T05:41:04;7.00;;;4.70;;
71202;SDS011;58929;47.490;19.090;2022-09-28T05:43:33;4.80;;;1.33;;
71202;SDS011;58929;47.490;19.090;2022-09-28T05:46:03;3.33;;;1.27;;
71202;SDS011;58929;47.490;19.090;2022-09-28T05:48:33;3.63;;;1.10;;
71202;SDS011;58929;47.490;19.090;2022-09-28T05:51:01;1.77;;;0.90;;
71202;SDS011;58929;47.490;19.090;2022-09-28T05:53:29;4.70;;;1.40;;
71202;SDS011;58929;47.490;19.090;2022-09-28T05:55:58;4.93;;;1.30;;
71202;SDS011;58929;47.490;19.090;2022-09-28T05:58:28;6.28;;;1.42;;
71202;SDS011;58929;47.490;19.090;2022-09-28T06:00:59;4.28;;;1.67;;
71202;SDS011;58929;47.490;19.090;2022-09-28T06:03:28;3.97;;;1.40;;
71202;SDS011;58929;47.490;19.090;2022-09-28T06:05:58;2.47;;;1.55;;
71202;SDS011;58929;47.490;19.090;2022-09-28T06:08:29;6.15;;;1.75;;
71202;SDS011;58929;47.490;19.090;2022-09-28T06:11:16;6.47;;;1.52;;
71202;SDS011;58929;47.490;19.090;2022-09-28T06:13:46;4.20;;;1.40;;
71202;SDS011;58929;47.490;19.090;2022-09-28T06:16:16;2.13;;;1.13;;
71202;SDS011;58929;47.490;19.090;2022-09-28T06:18:44;2.58;;;1.13;;
71202;SDS011;58929;47.490;19.090;2022-09-28T06:21:33;3.97;;;1.30;;
71202;SDS011;58929;47.490;19.090;2022-09-28T06:24:01;8.57;;;4.55;;
71202;SDS011;58929;47.490;19.090;2022-09-28T06:26:29;13.50;;;6.07;;
71202;SDS011;58929;47.490;19.090;2022-09-28T06:28:58;6.45;;;3.35;;
71202;SDS011;58929;47.490;19.090;2022-09-28T06:31:28;5.57;;;2.03;;
71202;SDS011;58929;47.490;19.090;2022-09-28T06:33:56;1.85;;;1.40;;
71202;SDS011;58929;47.490;19.090;2022-09-28T06:36:27;3.17;;;1.65;;
71202;SDS011;58929;47.490;19.090;2022-09-28T06:38:56;2.92;;;1.42;;
71202;SDS011;58929;47.490;19.090;2022-09-28T06:41:25;3.88;;;1.85;;
71202;SDS011;58929;47.490;19.090;2022-09-28T06:43:57;3.58;;;1.83;;
71202;SDS011;58929;47.490;19.090;2022-09-28T06:46:45;4.20;;;1.63;;
71202;SDS011;58929;47.490;19.090;2022-09-28T06:49:31;1.73;;;1.23;;
71202;SDS011;58929;47.490;19.090;2022-09-28T06:52:08;2.70;;;0.90;;
71202;SDS011;58929;47.490;19.090;2022-09-28T06:54:55;4.90;;;1.20;;
71202;SDS011;58929;47.490;19.090;2022-09-28T06:57:33;2.88;;;1.38;;
71202;SDS011;58929;47.490;19.090;2022-09-28T07:00:01;6.10;;;1.30;;
71202;SDS011;58929;47.490;19.090;2022-09-28T07:02:31;5.97;;;1.50;;
71202;SDS011;58929;47.490;19.090;2022-09-28T07:05:13;2.00;;;1.02;;
71202;SDS011;58929;47.490;19.090;2022-09-28T07:07:59;3.17;;;1.40;;
71202;SDS011;58929;47.490;19.090;2022-09-28T07:10:47;4.35;;;1.80;;
71202;SDS011;58929;47.490;19.090;2022-09-28T07:13:27;9.40;;;2.00;;
71202;SDS011;58929;47.490;19.090;2022-09-28T07:16:16;8.57;;;1.30;;
71202;SDS011;58929;47.490;19.090;2022-09-28T07:18:53;4.78;;;1.83;;
71202;SDS011;58929;47.490;19.090;2022-09-28T07:21:23;2.00;;;1.13;;
71202;SDS011;58929;47.490;19.090;2022-09-28T07:23:59;2.95;;;1.73;;
71202;SDS011;58929;47.490;19.090;2022-09-28T07:26:38;6.95;;;1.80;;
71202;SDS011;58929;47.490;19.090;2022-09-28T07:29:33;4.82;;;1.95;;
71202;SDS011;58929;47.490;19.090;2022-09-28T07:32:22;2.97;;;1.30;;
71202;SDS011;58929;47.490;19.090;2022-09-28T07:35:10;7.32;;;1.95;;
71202;SDS011;58929;47.490;19.090;2022-09-28T07:37:45;6.35;;;2.22;;
71202;SDS011;58929;47.490;19.090;2022-09-28T07:40:13;9.45;;;2.17;;
71202;SDS011;58929;47.490;19.090;2022-09-28T07:43:02;3.95;;;2.30;;
71202;SDS011;58929;47.490;19.090;2022-09-28T07:45:30;4.97;;;2.15;;
71202;SDS011;58929;47.490;19.090;2022-09-28T07:48:01;6.43;;;2.40;;
71202;SDS011;58929;47.490;19.090;2022-09-28T07:50:47;2.90;;;1.67;;
71202;SDS011;58929;47.490;19.090;2022-09-28T07:53:26;6.00;;;2.25;;
71202;SDS011;58929;47.490;19.090;2022-09-28T07:56:08;5.45;;;1.30;;
71202;SDS011;58929;47.490;19.090;2022-09-28T07:58:45;8.00;;;1.90;;
71202;SDS011;58929;47.490;19.090;2022-09-28T08:01:42;4.78;;;2.05;;
71202;SDS011;58929;47.490;19.090;2022-09-28T08:04:12;2.78;;;1.58;;
71202;SDS011;58929;47.490;19.090;2022-09-28T08:06:45;6.38;;;1.65;;
71202;SDS011;58929;47.490;19.090;2022-09-28T08:09:13;2.63;;;1.65;;
71202;SDS011;58929;47.490;19.090;2022-09-28T08:12:00;3.90;;;1.52;;
71202;SDS011;58929;47.490;19.090;2022-09-28T08:14:47;6.72;;;1.48;;
71202;SDS011;58929;47.490;19.090;2022-09-28T08:17:36;4.90;;;1.63;;
71202;SDS011;58929;47.490;19.090;2022-09-28T08:20:07;2.95;;;1.20;;
71202;SDS011;58929;47.490;19.090;2022-09-28T08:22:54;3.08;;;1.55;;
71202;SDS011;58929;47.490;19.090;2022-09-28T08:25:22;3.30;;;1.25;;
71202;SDS011;58929;47.490;19.090;2022-09-28T08:27:56;3.20;;;1.63;;
71202;SDS011;58929;47.490;19.090;2022-09-28T08:30:25;1.73;;;1.40;;
71202;SDS011;58929;47.490;19.090;2022-09-28T08:33:12;3.47;;;1.85;;
71202;SDS011;58929;47.490;19.090;2022-09-28T08:35:40;3.58;;;1.70;;
71202;SDS011;58929;47.490;19.090;2022-09-28T08:38:16;4.72;;;1.45;;
71202;SDS011;58929;47.490;19.090;2022-09-28T08:41:25;1.70;;;1.40;;
71202;SDS011;58929;47.490;19.090;2022-09-28T08:44:19;4.78;;;1.63;;
71202;SDS011;58929;47.490;19.090;2022-09-28T08:47:15;5.95;;;2.05;;
71202;SDS011;58929;47.490;19.090;2022-09-28T08:50:26;2.55;;;1.40;;
71202;SDS011;58929;47.490;19.090;2022-09-28T08:53:33;3.65;;;1.50;;
71202;SDS011;58929;47.490;19.090;2022-09-28T08:56:17;3.45;;;1.30;;
71202;SDS011;58929;47.490;19.090;2022-09-28T08:58:50;3.40;;;1.60;;
71202;SDS011;58929;47.490;19.090;2022-09-28T09:01:20;2.10;;;1.52;;
71202;SDS011;58929;47.490;19.090;2022-09-28T09:03:50;2.72;;;1.60;;
71202;SDS011;58929;47.490;19.090;2022-09-28T09:06:35;4.43;;;1.70;;
71202;SDS011;58929;47.490;19.090;2022-09-28T09:09:29;3.47;;;1.75;;
71202;SDS011;58929;47.490;19.090;2022-09-28T09:12:02;3.95;;;1.50;;
71202;SDS011;58929;47.490;19.090;2022-09-28T09:14:36;4.28;;;1.55;;
71202;SDS011;58929;47.490;19.090;2022-09-28T09:17:12;2.80;;;1.35;;
71202;SDS011;58929;47.490;19.090;2022-09-28T09:20:10;3.22;;;1.60;;
71202;SDS011;58929;47.490;19.090;2022-09-28T09:22:56;4.32;;;1.75;;
71202;SDS011;58929;47.490;19.090;2022-09-28T09:25:27;3.53;;;1.15;;
71202;SDS011;58929;47.490;19.090;2022-09-28T09:31:01;2.33;;;1.40;;
71202;SDS011;58929;47.490;19.090;2022-09-28T09:33:56;2.67;;;1.60;;
71202;SDS011;58929;47.490;19.090;2022-09-28T09:36:48;4.93;;;1.80;;
71202;SDS011;58929;47.490;19.090;2022-09-28T09:39:40;2.50;;;1.77;;
71202;SDS011;58929;47.490;19.090;2022-09-28T09:42:48;4.10;;;1.75;;
71202;SDS011;58929;47.490;19.090;2022-09-28T09:45:47;6.18;;;1.63;;
71202;SDS011;58929;47.490;19.090;2022-09-28T09:48:33;1.90;;;1.20;;
71202;SDS011;58929;47.490;19.090;2022-09-28T09:51:05;8.68;;;1.65;;
71202;SDS011;58929;47.490;19.090;2022-09-28T09:53:39;1.98;;;1.60;;
71202;SDS011;58929;47.490;19.090;2022-09-28T09:56:11;3.13;;;1.50;;
71202;SDS011;58929;47.490;19.090;2022-09-28T09:59:00;2.72;;;1.67;;
71202;SDS011;58929;47.490;19.090;2022-09-28T10:01:36;5.93;;;1.50;;
71202;SDS011;58929;47.490;19.090;2022-09-28T10:04:18;1.85;;;1.40;;
71202;SDS011;58929;47.490;19.090;2022-09-28T10:06:48;5.10;;;1.30;;
71202;SDS011;58929;47.490;19.090;2022-09-28T10:09:19;3.17;;;1.75;;
71202;SDS011;58929;47.490;19.090;2022-09-28T10:11:48;3.85;;;2.00;;
71202;SDS011;58929;47.490;19.090;2022-09-28T10:14:19;1.73;;;1.40;;
71202;SDS011;58929;47.490;19.090;2022-09-28T10:16:55;1.77;;;1.40;;
71202;SDS011;58929;47.490;19.090;2022-09-28T10:19:44;5.93;;;1.70;;
71202;SDS011;58929;47.490;19.090;2022-09-28T10:22:30;3.05;;;1.75;;
71202;SDS011;58929;47.490;19.090;2022-09-28T10:25:07;3.58;;;1.50;;
71202;SDS011;58929;47.490;19.090;2022-09-28T10:27:37;1.65;;;1.40;;
71202;SDS011;58929;47.490;19.090;2022-09-28T10:30:13;3.45;;;1.35;;
71202;SDS011;58929;47.490;19.090;2022-09-28T10:32:45;2.55;;;1.33;;
71202;SDS011;58929;47.490;19.090;2022-09-28T10:35:22;2.58;;;1.27;;
71202;SDS011;58929;47.490;19.090;2022-09-28T10:38:00;6.05;;;1.58;;
71202;SDS011;58929;47.490;19.090;2022-09-28T10:41:08;2.53;;;1.40;;
71202;SDS011;58929;47.490;19.090;2022-09-28T10:43:54;3.42;;;1.40;;
71202;SDS011;58929;47.490;19.090;2022-09-28T10:46:43;4.90;;;1.80;;
71202;SDS011;58929;47.490;19.090;2022-09-28T10:49:14;2.63;;;1.20;;
71202;SDS011;58929;47.490;19.090;2022-09-28T10:51:50;2.40;;;1.33;;
71202;SDS011;58929;47.490;19.090;2022-09-28T10:54:30;3.28;;;1.52;;
71202;SDS011;58929;47.490;19.090;2022-09-28T10:56:59;2.67;;;1.77;;
71202;SDS011;58929;47.490;19.090;2022-09-28T10:59:44;7.05;;;2.08;;
71202;SDS011;58929;47.490;19.090;2022-09-28T11:02:23;7.47;;;2.20;;
71202;SDS011;58929;47.490;19.090;2022-09-28T11:05:00;7.70;;;3.28;;
71202;SDS011;58929;47.490;19.090;2022-09-28T11:07:44;7.82;;;2.75;;
71202;SDS011;58929;47.490;19.090;2022-09-28T11:10:20;6.82;;;2.80;;
71202;SDS011;58929;47.490;19.090;2022-09-28T11:12:50;7.28;;;3.20;;
71202;SDS011;58929;47.490;19.090;2022-09-28T11:15:21;5.13;;;2.70;;
71202;SDS011;58929;47.490;19.090;2022-09-28T11:17:53;5.50;;;2.25;;
71202;SDS011;58929;47.490;19.090;2022-09-28T11:20:29;6.47;;;2.42;;
71202;SDS011;58929;47.490;19.090;2022-09-28T11:23:13;10.48;;;2.20;;
71202;SDS011;58929;47.490;19.090;2022-09-28T11:25:43;5.20;;;1.55;;
71202;SDS011;58929;47.490;19.090;2022-09-28T11:28:23;3.28;;;1.35;;
71202;SDS011;58929;47.490;19.090;2022-09-28T11:30:51;3.03;;;1.70;;
71202;SDS011;58929;47.490;19.090;2022-09-28T11:36:21;2.58;;;2.00;;
71202;SDS011;58929;47.490;19.090;2022-09-28T11:38:55;6.93;;;2.22;;
71202;SDS011;58929;47.490;19.090;2022-09-28T11:44:35;3.78;;;1.60;;
71202;SDS011;58929;47.490;19.090;2022-09-28T11:47:21;5.93;;;1.83;;
71202;SDS011;58929;47.490;19.090;2022-09-28T11:49:55;6.65;;;1.80;;
71202;SDS011;58929;47.490;19.090;2022-09-28T11:52:26;2.13;;;1.30;;
71202;SDS011;58929;47.490;19.090;2022-09-28T11:54:56;4.32;;;1.40;;
71202;SDS011;58929;47.490;19.090;2022-09-28T11:57:26;1.63;;;1.13;;
71202;SDS011;58929;47.490;19.090;2022-09-28T11:59:56;2.55;;;1.15;;
71202;SDS011;58929;47.490;19.090;2022-09-28T12:02:25;5.43;;;1.33;;
71202;SDS011;58929;47.490;19.090;2022-09-28T12:05:04;4.85;;;1.40;;
71202;SDS011;58929;47.490;19.090;2022-09-28T12:07:37;1.73;;;1.17;;
71202;SDS011;58929;47.490;19.090;2022-09-28T12:10:17;1.63;;;1.17;;
71202;SDS011;58929;47.490;19.090;2022-09-28T12:12:48;5.30;;;1.45;;
71202;SDS011;58929;47.490;19.090;2022-09-28T12:15:19;5.07;;;1.15;;
71202;SDS011;58929;47.490;19.090;2022-09-28T12:17:49;1.98;;;1.10;;
71202;SDS011;58929;47.490;19.090;2022-09-28T12:20:19;2.97;;;1.20;;
71202;SDS011;58929;47.490;19.090;2022-09-28T12:22:53;4.03;;;1.10;;
71202;SDS011;58929;47.490;19.090;2022-09-28T12:25:22;1.65;;;0.90;;
71202;SDS011;58929;47.490;19.090;2022-09-28T12:27:52;6.85;;;1.42;;
71202;SDS011;58929;47.490;19.090;2022-09-28T12:30:21;1.85;;;1.10;;
71202;SDS011;58929;47.490;19.090;2022-09-28T12:32:51;1.13;;;0.80;;
71202;SDS011;58929;47.490;19.090;2022-09-28T12:35:23;4.90;;;0.80;;
71202;SDS011;58929;47.490;19.090;2022-09-28T12:37:59;2.28;;;0.90;;
71202;SDS011;58929;47.490;19.090;2022-09-28T12:40:39;1.88;;;1.00;;
71202;SDS011;58929;47.490;19.090;2022-09-28T12:43:11;3.78;;;1.08;;
71202;SDS011;58929;47.490;19.090;2022-09-28T12:45:49;4.47;;;1.20;;
71202;SDS011;58929;47.490;19.090;2022-09-28T12:48:49;3.80;;;1.10;;
71202;SDS011;58929;47.490;19.090;2022-09-28T12:51:43;4.35;;;0.90;;
71202;SDS011;58929;47.490;19.090;2022-09-28T12:54:17;5.90;;;1.00;;
71202;SDS011;58929;47.490;19.090;2022-09-28T12:56:55;4.15;;;0.90;;
71202;SDS011;58929;47.490;19.090;2022-09-28T12:59:26;18.15;;;2.25;;
71202;SDS011;58929;47.490;19.090;2022-09-28T13:02:10;0.90;;;0.70;;
71202;SDS011;58929;47.490;19.090;2022-09-28T13:04:44;2.13;;;0.82;;
71202;SDS011;58929;47.490;19.090;2022-09-28T13:07:16;2.15;;;0.98;;
71202;SDS011;58929;47.490;19.090;2022-09-28T13:09:50;2.25;;;1.20;;
71202;SDS011;58929;47.490;19.090;2022-09-28T13:12:23;4.45;;;1.00;;
71202;SDS011;58929;47.490;19.090;2022-09-28T13:15:03;4.03;;;0.80;;
71202;SDS011;58929;47.490;19.090;2022-09-28T13:17:39;4.05;;;0.70;;
71202;SDS011;58929;47.490;19.090;2022-09-28T13:23:00;4.85;;;1.00;;
71202;SDS011;58929;47.490;19.090;2022-09-28T13:25:31;2.45;;;0.90;;
71202;SDS011;58929;47.490;19.090;2022-09-28T13:28:02;1.60;;;0.77;;
71202;SDS011;58929;47.490;19.090;2022-09-28T13:30:31;1.75;;;0.73;;
71202;SDS011;58929;47.490;19.090;2022-09-28T13:33:01;3.10;;;1.13;;
71202;SDS011;58929;47.490;19.090;2022-09-28T13:35:29;2.95;;;0.90;;
71202;SDS011;58929;47.490;19.090;2022-09-28T13:43:38;6.90;;;1.17;;
71202;SDS011;58929;47.490;19.090;2022-09-28T13:46:13;3.53;;;1.00;;
71202;SDS011;58929;47.490;19.090;2022-09-28T13:48:49;3.25;;;0.90;;
71202;SDS011;58929;47.490;19.090;2022-09-28T13:51:26;2.30;;;0.73;;
71202;SDS011;58929;47.490;19.090;2022-09-28T13:56:53;4.82;;;0.85;;
71202;SDS011;58929;47.490;19.090;2022-09-28T13:59:25;2.90;;;0.68;;
71202;SDS011;58929;47.490;19.090;2022-09-28T14:01:57;2.58;;;1.10;;
71202;SDS011;58929;47.490;19.090;2022-09-28T14:07:17;1.98;;;0.50;;
71202;SDS011;58929;47.490;19.090;2022-09-28T14:09:47;2.33;;;0.77;;
71202;SDS011;58929;47.490;19.090;2022-09-28T14:15:04;1.25;;;0.73;;
71202;SDS011;58929;47.490;19.090;2022-09-28T14:20:20;1.02;;;0.60;;
71202;SDS011;58929;47.490;19.090;2022-09-28T14:22:56;3.95;;;0.80;;
71202;SDS011;58929;47.490;19.090;2022-09-28T14:25:27;1.65;;;0.70;;
71202;SDS011;58929;47.490;19.090;2022-09-28T14:28:00;2.85;;;0.50;;
71202;SDS011;58929;47.490;19.090;2022-09-28T14:30:44;4.18;;;0.80;;
71202;SDS011;58929;47.490;19.090;2022-09-28T14:33:21;3.50;;;0.73;;
71202;SDS011;58929;47.490;19.090;2022-09-28T14:35:51;0.65;;;0.60;;
71202;SDS011;58929;47.490;19.090;2022-09-28T14:38:22;2.92;;;0.70;;
71202;SDS011;58929;47.490;19.090;2022-09-28T14:41:10;1.00;;;0.68;;
71202;SDS011;58929;47.490;19.090;2022-09-28T14:46:36;1.00;;;0.60;;
71202;SDS011;58929;47.490;19.090;2022-09-28T14:54:37;2.58;;;0.70;;
71202;SDS011;58929;47.490;19.090;2022-09-28T14:57:06;3.20;;;0.70;;
71202;SDS011;58929;47.490;19.090;2022-09-28T14:59:39;1.98;;;0.63;;
71202;SDS011;58929;47.490;19.090;2022-09-28T15:02:13;1.58;;;0.60;;
71202;SDS011;58929;47.490;19.090;2022-09-28T15:04:44;1.65;;;0.73;;
71202;SDS011;58929;47.490;19.090;2022-09-28T15:07:17;3.75;;;1.20;;
71202;SDS011;58929;47.490;19.090;2022-09-28T15:09:46;5.30;;;1.00;;
71202;SDS011;58929;47.490;19.090;2022-09-28T15:12:15;2.50;;;0.80;;
71202;SDS011;58929;47.490;19.090;2022-09-28T15:14:44;4.55;;;0.73;;
71202;SDS011;58929;47.490;19.090;2022-09-28T15:17:17;4.28;;;0.90;;
71202;SDS011;58929;47.490;19.090;2022-09-28T15:19:47;2.28;;;0.80;;
71202;SDS011;58929;47.490;19.090;2022-09-28T15:22:19;2.20;;;0.95;;
71202;SDS011;58929;47.490;19.090;2022-09-28T15:24:52;3.65;;;0.90;;
71202;SDS011;58929;47.490;19.090;2022-09-28T15:27:33;2.10;;;0.95;;
71202;SDS011;58929;47.490;19.090;2022-09-28T15:30:14;3.38;;;0.95;;
71202;SDS011;58929;47.490;19.090;2022-09-28T15:32:45;3.75;;;0.75;;
71202;SDS011;58929;47.490;19.090;2022-09-28T15:35:14;1.65;;;1.10;;
71202;SDS011;58929;47.490;19.090;2022-09-28T15:37:45;3.28;;;0.90;;
71202;SDS011;58929;47.490;19.090;2022-09-28T15:40:19;1.75;;;0.80;;
71202;SDS011;58929;47.490;19.090;2022-09-28T15:42:48;2.58;;;1.35;;
71202;SDS011;58929;47.490;19.090;2022-09-28T15:45:20;2.15;;;1.00;;
71202;SDS011;58929;47.490;19.090;2022-09-28T15:47:54;1.88;;;1.00;;
71202;SDS011;58929;47.490;19.090;2022-09-28T15:50:24;4.85;;;1.20;;
71202;SDS011;58929;47.490;19.090;2022-09-28T15:52:55;4.35;;;0.85;;
71202;SDS011;58929;47.490;19.090;2022-09-28T15:55:24;3.42;;;1.40;;
71202;SDS011;58929;47.490;19.090;2022-09-28T15:58:03;4.50;;;0.90;;
71202;SDS011;58929;47.490;19.090;2022-09-28T16:00:31;1.30;;;1.10;;